createdAt,value
2023-01-29T00:00:05.962Z,93.08
2023-01-29T00:00:55.954Z,92.98
2023-01-29T00:01:46.003Z,92.66
2023-01-29T00:02:35.942Z,92.46
2023-01-29T00:03:25.987Z,92.46
2023-01-29T00:04:15.927Z,92.35
2023-01-29T00:05:25.543Z,92.35
2023-01-29T00:05:56.897Z,92.25
2023-01-29T00:06:45.907Z,92.35
2023-01-29T00:07:35.918Z,92.25
2023-01-29T00:08:25.860Z,92.46
2023-01-29T00:09:15.875Z,93.08
2023-01-29T00:10:05.886Z,93.40
2023-01-29T00:10:55.858Z,92.60
2023-01-29T00:11:45.847Z,92.08
2023-01-29T00:12:35.828Z,91.98
2023-01-29T00:13:25.809Z,91.98
2023-01-29T00:14:15.808Z,91.87
2023-01-29T00:15:05.836Z,91.98
2023-01-29T00:15:55.815Z,91.94
2023-01-29T00:16:45.821Z,92.19
2023-01-29T00:17:35.767Z,92.29
2023-01-29T00:18:25.788Z,92.08
2023-01-29T00:19:15.756Z,91.87
2023-01-29T00:20:05.770Z,91.77
2023-01-29T00:20:55.754Z,91.72
2023-01-29T00:21:45.749Z,91.77
2023-01-29T00:22:35.738Z,92.08
2023-01-29T00:23:25.711Z,91.77
2023-01-29T00:24:15.753Z,91.77
2023-01-29T00:25:05.688Z,91.56
2023-01-29T00:25:55.719Z,91.87
2023-01-29T00:26:45.715Z,92.08
2023-01-29T00:27:35.667Z,91.98
2023-01-29T00:28:25.654Z,91.87
2023-01-29T00:29:15.646Z,91.98
2023-01-29T00:30:05.635Z,92.08
2023-01-29T00:30:55.678Z,91.98
2023-01-29T00:31:45.778Z,92.08
2023-01-29T00:32:35.623Z,91.98
2023-01-29T00:33:25.611Z,92.08
2023-01-29T00:34:15.593Z,92.19
2023-01-29T00:35:05.573Z,92.19
2023-01-29T00:35:55.579Z,91.98
2023-01-29T00:36:45.596Z,92.08
2023-01-29T00:37:35.561Z,92.29
2023-01-29T00:38:25.563Z,92.50
2023-01-29T00:39:15.576Z,92.60
2023-01-29T00:40:05.530Z,92.50
2023-01-29T00:40:55.522Z,92.71
2023-01-29T00:41:45.546Z,92.82
2023-01-29T00:42:35.517Z,92.50
2023-01-29T00:43:25.483Z,92.40
2023-01-29T00:44:15.518Z,92.08
2023-01-29T00:45:05.467Z,91.98
2023-01-29T00:45:55.460Z,91.87
2023-01-29T00:46:45.578Z,91.98
2023-01-29T00:47:35.500Z,92.19
2023-01-29T00:48:25.445Z,92.29
2023-01-29T00:49:15.442Z,92.40
2023-01-29T00:50:05.454Z,91.98
2023-01-29T00:50:55.422Z,91.77
2023-01-29T00:51:45.396Z,91.87
2023-01-29T00:52:35.429Z,92.19
2023-01-29T00:53:25.398Z,92.50
2023-01-29T00:54:15.379Z,91.77
2023-01-29T00:55:05.395Z,91.87
2023-01-29T00:55:55.393Z,91.77
2023-01-29T00:56:45.351Z,91.66
2023-01-29T00:57:35.338Z,91.87
2023-01-29T00:58:25.355Z,92.08
2023-01-29T00:59:15.337Z,92.08
2023-01-29T01:00:05.332Z,91.98
2023-01-29T01:00:55.356Z,91.87
2023-01-29T01:01:45.317Z,91.98
2023-01-29T01:02:35.299Z,91.77
2023-01-29T01:03:25.304Z,90.83
2023-01-29T01:04:15.283Z,90.52
2023-01-29T01:05:05.284Z,90.62
2023-01-29T01:05:55.243Z,90.72
2023-01-29T01:06:45.231Z,90.72
2023-01-29T01:07:35.263Z,90.93
2023-01-29T01:08:25.240Z,91.25
2023-01-29T01:09:15.206Z,91.77
2023-01-29T01:10:05.195Z,92.08
2023-01-29T01:10:55.207Z,91.98
2023-01-29T01:11:45.185Z,91.98
2023-01-29T01:12:35.184Z,91.46
2023-01-29T01:13:25.202Z,91.14
2023-01-29T01:14:15.163Z,91.03
2023-01-29T01:15:05.184Z,91.46
2023-01-29T01:15:55.184Z,91.25
2023-01-29T01:16:45.146Z,91.25
2023-01-29T01:17:35.130Z,91.35
2023-01-29T01:18:25.124Z,91.35
2023-01-29T01:19:15.513Z,91.35
2023-01-29T01:20:05.099Z,90.83
2023-01-29T01:20:55.104Z,90.62
2023-01-29T01:21:45.076Z,90.41
2023-01-29T01:22:35.074Z,89.89
2023-01-29T01:23:25.051Z,89.89
2023-01-29T01:24:15.122Z,90.26
2023-01-29T01:25:05.062Z,90.72
2023-01-29T01:25:55.021Z,90.62
2023-01-29T01:26:45.029Z,90.41
2023-01-29T01:27:35.025Z,90.41
2023-01-29T01:28:25.024Z,90.41
2023-01-29T01:29:14.982Z,90.62
2023-01-29T01:30:04.990Z,90.83
2023-01-29T01:30:55.028Z,91.03
2023-01-29T01:31:44.996Z,91.14
2023-01-29T01:32:34.975Z,91.10
2023-01-29T01:33:24.970Z,91.25
2023-01-29T01:34:14.938Z,91.25
2023-01-29T01:35:04.958Z,90.52
2023-01-29T01:35:54.928Z,90.20
2023-01-29T01:36:44.922Z,90.41
2023-01-29T01:37:34.899Z,89.89
2023-01-29T01:38:24.890Z,89.58
2023-01-29T01:39:14.870Z,89.78
2023-01-29T01:40:04.905Z,89.99
2023-01-29T01:40:54.861Z,89.99
2023-01-29T01:41:44.861Z,89.68
2023-01-29T01:42:34.847Z,89.47
2023-01-29T01:43:24.840Z,89.68
2023-01-29T01:44:14.816Z,89.99
2023-01-29T01:45:04.863Z,90.09
2023-01-29T01:45:54.840Z,90.31
2023-01-29T01:46:44.796Z,90.31
2023-01-29T01:47:34.808Z,89.99
2023-01-29T01:48:24.788Z,89.89
2023-01-29T01:49:14.768Z,89.89
2023-01-29T01:50:04.756Z,89.89
2023-01-29T01:50:54.781Z,89.78
2023-01-29T01:51:44.749Z,89.89
2023-01-29T01:52:34.764Z,89.89
2023-01-29T01:53:24.737Z,89.99
2023-01-29T01:54:14.724Z,90.09
2023-01-29T01:55:04.727Z,90.41
2023-01-29T01:55:54.697Z,90.83
2023-01-29T01:56:44.722Z,90.93
2023-01-29T01:57:34.696Z,91.14
2023-01-29T01:58:24.685Z,91.25
2023-01-29T01:59:14.673Z,91.25
2023-01-29T02:00:04.664Z,91.25
2023-01-29T02:00:54.668Z,90.31
2023-01-29T02:01:44.635Z,89.58
2023-01-29T02:02:34.624Z,89.26
2023-01-29T02:03:24.676Z,89.58
2023-01-29T02:04:14.611Z,89.68
2023-01-29T02:05:04.628Z,89.78
2023-01-29T02:05:54.598Z,90.20
2023-01-29T02:06:44.593Z,90.31
2023-01-29T02:07:34.564Z,90.52
2023-01-29T02:08:24.600Z,90.31
2023-01-29T02:09:14.561Z,89.78
2023-01-29T02:10:04.551Z,89.99
2023-01-29T02:10:54.563Z,89.89
2023-01-29T02:11:44.532Z,89.99
2023-01-29T02:12:34.511Z,89.89
2023-01-29T02:13:24.558Z,89.89
2023-01-29T02:14:14.503Z,90.24
2023-01-29T02:15:04.491Z,90.24
2023-01-29T02:15:54.497Z,89.83
2023-01-29T02:16:44.490Z,89.61
2023-01-29T02:17:34.482Z,89.51
2023-01-29T02:18:24.469Z,89.30
2023-01-29T02:19:14.448Z,89.30
2023-01-29T02:20:04.460Z,88.78
2023-01-29T02:20:54.440Z,88.36
2023-01-29T02:21:44.435Z,88.46
2023-01-29T02:22:34.435Z,88.36
2023-01-29T02:23:24.409Z,88.57
2023-01-29T02:24:14.545Z,88.99
2023-01-29T02:25:04.442Z,89.20
2023-01-29T02:25:54.395Z,89.20
2023-01-29T02:26:44.396Z,89.51
2023-01-29T02:27:34.387Z,89.72
2023-01-29T02:28:24.382Z,89.83
2023-01-29T02:29:14.338Z,90.14
2023-01-29T02:30:04.338Z,90.03
2023-01-29T02:30:54.364Z,90.24
2023-01-29T02:31:44.400Z,90.03
2023-01-29T02:32:34.317Z,89.83
2023-01-29T02:33:24.307Z,89.83
2023-01-29T02:34:14.277Z,90.14
2023-01-29T02:35:04.276Z,89.72
2023-01-29T02:35:54.255Z,89.30
2023-01-29T02:36:44.274Z,89.09
2023-01-29T02:37:34.257Z,89.40
2023-01-29T02:38:24.264Z,88.99
2023-01-29T02:39:14.233Z,89.20
2023-01-29T02:40:04.250Z,89.20
2023-01-29T02:40:54.214Z,89.30
2023-01-29T02:41:44.218Z,89.93
2023-01-29T02:42:34.206Z,89.40
2023-01-29T02:43:24.193Z,89.30
2023-01-29T02:44:14.163Z,89.40
2023-01-29T02:45:04.179Z,89.61
2023-01-29T02:45:54.265Z,89.83
2023-01-29T02:46:44.175Z,90.14
2023-01-29T02:47:34.152Z,89.30
2023-01-29T02:48:24.142Z,88.36
2023-01-29T02:49:14.155Z,88.15
2023-01-29T02:50:04.111Z,88.26
2023-01-29T02:50:54.100Z,88.36
2023-01-29T02:51:44.102Z,88.36
2023-01-29T02:52:34.092Z,88.46
2023-01-29T02:56:01.530Z,88.88
